createdAt,value
2018-07-26T00:00:27.878Z,25.10
2018-07-26T00:02:55.209Z,25.10
2018-07-26T00:05:22.543Z,25.10
2018-07-26T00:07:49.844Z,25.00
2018-07-26T00:10:17.225Z,25.10
2018-07-26T00:12:44.592Z,25.00
2018-07-26T00:15:11.951Z,25.00
2018-07-26T00:17:44.221Z,25.10
2018-07-26T00:20:11.565Z,24.90
2018-07-26T00:22:38.862Z,24.80
2018-07-26T00:25:06.436Z,24.80
2018-07-26T00:27:33.708Z,24.80
2018-07-26T00:30:01.014Z,24.80
2018-07-26T00:32:31.081Z,24.70
2018-07-26T00:34:58.566Z,24.70
2018-07-26T00:37:25.895Z,24.60
2018-07-26T00:39:56.032Z,24.60
2018-07-26T00:42:23.338Z,24.60
2018-07-26T00:44:50.699Z,24.60
2018-07-26T00:47:18.692Z,24.60
2018-07-26T00:49:46.479Z,24.50
2018-07-26T00:52:13.929Z,24.40
2018-07-26T00:54:41.762Z,24.50
2018-07-26T00:57:09.756Z,24.40
2018-07-26T00:59:40.505Z,24.30
2018-07-26T01:02:07.891Z,24.30
2018-07-26T01:04:35.294Z,24.30
2018-07-26T01:09:53.443Z,24.20
2018-07-26T01:15:26.683Z,24.20
2018-07-26T01:17:54.881Z,24.00
2018-07-26T01:20:27.411Z,24.10
2018-07-26T01:22:55.059Z,24.00
2018-07-26T01:25:22.611Z,24.10
2018-07-26T01:27:50.170Z,24.00
2018-07-26T01:30:17.864Z,24.00
2018-07-26T01:32:45.392Z,24.00
2018-07-26T01:35:12.957Z,24.00
2018-07-26T01:37:40.504Z,24.00
2018-07-26T01:40:08.089Z,23.80
2018-07-26T01:42:49.535Z,23.90
2018-07-26T01:45:21.569Z,23.80
2018-07-26T01:47:49.119Z,23.80
2018-07-26T01:50:16.934Z,23.80
2018-07-26T01:52:46.518Z,23.80
2018-07-26T01:55:14.426Z,23.80
2018-07-26T01:57:42.025Z,23.80
2018-07-26T02:00:09.602Z,23.70
2018-07-26T02:02:37.330Z,23.70
2018-07-26T02:05:05.032Z,23.70
2018-07-26T02:07:32.581Z,23.60
2018-07-26T02:10:00.190Z,23.60
2018-07-26T02:12:27.735Z,23.50
2018-07-26T02:14:55.313Z,23.50
2018-07-26T02:17:23.234Z,23.50
2018-07-26T02:19:50.889Z,23.40
2018-07-26T02:22:18.534Z,23.50
2018-07-26T02:24:46.134Z,23.50
2018-07-26T02:27:13.694Z,23.40
2018-07-26T02:29:42.736Z,23.40
2018-07-26T02:32:10.427Z,23.40
2018-07-26T02:34:38.061Z,23.40
2018-07-26T02:37:05.662Z,23.30
2018-07-26T02:39:33.222Z,23.30
2018-07-26T02:42:00.798Z,23.30
2018-07-26T02:44:28.382Z,23.30
2018-07-26T02:46:55.991Z,23.30
2018-07-26T02:49:23.543Z,23.20
2018-07-26T02:51:51.137Z,23.20
2018-07-26T02:54:18.758Z,23.20
2018-07-26T02:56:46.405Z,23.20
2018-07-26T02:59:14.487Z,23.20
2018-07-26T03:01:41.986Z,23.10
2018-07-26T03:04:09.556Z,23.10
2018-07-26T03:06:37.194Z,23.10
2018-07-26T03:09:06.241Z,23.00
2018-07-26T03:11:33.806Z,23.00
2018-07-26T03:14:01.319Z,23.00
2018-07-26T03:16:28.817Z,22.90
2018-07-26T03:18:56.605Z,22.90
2018-07-26T03:21:26.994Z,22.70
2018-07-26T03:23:54.633Z,22.80
2018-07-26T03:26:22.247Z,22.80
2018-07-26T03:28:49.795Z,22.90
2018-07-26T03:31:17.339Z,22.90
2018-07-26T03:33:44.875Z,22.80
2018-07-26T03:36:12.679Z,22.80
2018-07-26T03:38:40.170Z,22.80
2018-07-26T03:41:07.759Z,22.90
2018-07-26T03:43:35.330Z,22.50
2018-07-26T03:46:02.882Z,22.90
2018-07-26T03:48:30.446Z,22.70
2018-07-26T03:50:57.982Z,22.70
2018-07-26T03:53:25.530Z,22.70
2018-07-26T03:55:53.890Z,22.70
2018-07-26T03:58:21.533Z,22.70
2018-07-26T04:00:49.094Z,22.70
2018-07-26T04:03:16.702Z,22.60
2018-07-26T04:05:44.296Z,22.60
2018-07-26T04:08:11.875Z,22.60
2018-07-26T04:10:39.449Z,22.60
2018-07-26T04:13:07.015Z,22.60
2018-07-26T04:15:34.632Z,22.50
2018-07-26T04:18:04.932Z,22.50
2018-07-26T04:20:33.003Z,22.50
2018-07-26T04:23:00.686Z,22.50
2018-07-26T04:25:28.508Z,22.50
2018-07-26T04:27:56.077Z,22.50
2018-07-26T04:30:24.016Z,22.50
2018-07-26T04:32:51.806Z,22.50
2018-07-26T04:35:19.459Z,22.60
2018-07-26T04:37:47.010Z,22.60
2018-07-26T04:40:14.602Z,22.60
2018-07-26T04:42:42.162Z,22.60
2018-07-26T04:45:09.739Z,22.60
2018-07-26T04:47:37.642Z,22.50
2018-07-26T04:50:05.200Z,22.50
2018-07-26T04:52:33.157Z,22.60
2018-07-26T04:55:00.783Z,22.70
2018-07-26T04:57:28.326Z,22.60
2018-07-26T04:59:55.895Z,22.70
2018-07-26T05:02:23.510Z,22.70
2018-07-26T05:04:51.144Z,22.70
2018-07-26T05:07:18.674Z,22.70
2018-07-26T05:09:46.230Z,22.80
2018-07-26T05:12:13.766Z,22.80
2018-07-26T05:14:41.335Z,22.70
2018-07-26T05:17:08.946Z,22.90
2018-07-26T05:19:36.475Z,23.00
2018-07-26T05:22:04.129Z,23.00
2018-07-26T05:24:31.638Z,22.90
2018-07-26T05:26:59.177Z,23.00
2018-07-26T05:29:26.700Z,23.00
2018-07-26T05:31:54.253Z,23.10
2018-07-26T05:34:21.861Z,23.30
2018-07-26T05:36:49.390Z,23.30
2018-07-26T05:39:16.996Z,23.30
2018-07-26T05:41:45.182Z,23.30
2018-07-26T05:44:12.753Z,23.40
2018-07-26T05:46:40.353Z,23.50
2018-07-26T05:49:07.902Z,23.60
2018-07-26T05:51:35.399Z,23.70
2018-07-26T05:54:03.044Z,23.70
2018-07-26T05:56:30.607Z,23.90
2018-07-26T05:58:58.134Z,24.00
2018-07-26T06:01:25.898Z,24.10
2018-07-26T06:10:09.766Z,24.40
2018-07-26T06:12:37.374Z,24.60
2018-07-26T06:15:07.273Z,24.70
2018-07-26T06:20:03.783Z,24.80
2018-07-26T06:22:31.847Z,24.90
2018-07-26T06:24:59.319Z,25.00
2018-07-26T06:27:26.803Z,25.10
2018-07-26T06:29:54.190Z,25.20
2018-07-26T06:32:21.594Z,25.30
2018-07-26T06:37:16.566Z,25.60
2018-07-26T06:39:44.072Z,25.70
2018-07-26T06:42:11.462Z,25.80
2018-07-26T06:44:38.882Z,26.00
2018-07-26T06:47:07.494Z,26.10
2018-07-26T06:49:35.359Z,26.30
2018-07-26T06:52:02.857Z,26.40
2018-07-26T06:54:30.228Z,26.30
2018-07-26T06:56:57.857Z,26.70
2018-07-26T07:01:52.813Z,26.80
2018-07-26T07:04:22.784Z,26.90
2018-07-26T07:06:50.188Z,27.20
2018-07-26T07:09:17.656Z,27.20
2018-07-26T07:11:45.070Z,27.20
2018-07-26T07:14:12.976Z,27.50
2018-07-26T07:16:40.613Z,27.60
2018-07-26T07:19:08.654Z,27.70
2018-07-26T07:21:36.147Z,27.80
2018-07-26T07:24:03.627Z,28.20
2018-07-26T07:26:31.037Z,28.50
2018-07-26T07:28:58.502Z,28.60
2018-07-26T07:31:26.006Z,28.80
2018-07-26T07:33:53.402Z,29.10
2018-07-26T07:36:20.820Z,29.40
2018-07-26T07:38:48.198Z,29.70
2018-07-26T07:41:15.881Z,30.50
2018-07-26T07:43:43.404Z,31.40
2018-07-26T07:46:10.877Z,32.60
2018-07-26T07:48:38.259Z,34.00
2018-07-26T07:51:05.628Z,35.60
2018-07-26T07:53:33.056Z,37.20
2018-07-26T07:56:01.134Z,38.80
2018-07-26T07:58:28.571Z,40.20
2018-07-26T08:00:56.123Z,41.40
2018-07-26T08:03:23.533Z,42.50
2018-07-26T08:05:50.922Z,43.10
2018-07-26T08:08:18.303Z,43.70
2018-07-26T08:10:45.719Z,44.30
2018-07-26T08:13:13.241Z,44.90
2018-07-26T08:15:40.644Z,45.40
2018-07-26T08:18:08.121Z,45.80
2018-07-26T08:20:36.212Z,46.20
2018-07-26T08:23:03.853Z,46.50
2018-07-26T08:25:31.254Z,47.00
2018-07-26T08:27:58.733Z,46.70
2018-07-26T08:30:30.875Z,47.00
2018-07-26T08:32:58.291Z,47.20
2018-07-26T08:35:25.771Z,47.10
2018-07-26T08:37:53.165Z,46.60
2018-07-26T08:40:20.586Z,45.50
2018-07-26T08:42:48.024Z,44.20
2018-07-26T08:45:20.190Z,42.80
2018-07-26T08:47:47.574Z,41.20
2018-07-26T08:50:14.994Z,39.80
2018-07-26T08:52:42.389Z,38.80
2018-07-26T08:55:09.797Z,38.10
2018-07-26T08:57:37.195Z,37.40
2018-07-26T09:00:06.468Z,36.70
2018-07-26T09:02:33.942Z,36.10
2018-07-26T09:05:01.352Z,35.80
2018-07-26T09:07:28.751Z,35.60
2018-07-26T09:09:56.205Z,35.50
2018-07-26T09:12:23.587Z,35.20
2018-07-26T09:14:52.926Z,35.00
2018-07-26T09:17:20.349Z,35.20
2018-07-26T09:19:47.810Z,34.70
2018-07-26T09:22:15.245Z,34.70
2018-07-26T09:24:42.701Z,34.60
2018-07-26T09:27:14.949Z,34.70
2018-07-26T09:29:42.310Z,34.60
2018-07-26T09:32:10.052Z,34.70
2018-07-26T09:34:37.406Z,34.70
2018-07-26T09:37:04.845Z,34.60
2018-07-26T09:39:32.245Z,34.70
2018-07-26T09:41:59.584Z,34.70
2018-07-26T09:44:27.064Z,34.80
2018-07-26T09:46:54.598Z,35.00
2018-07-26T09:49:22.154Z,34.90
2018-07-26T09:51:49.574Z,34.90
2018-07-26T09:54:17.365Z,34.80
2018-07-26T09:56:44.815Z,34.90
2018-07-26T09:59:12.678Z,35.00
2018-07-26T10:01:40.862Z,35.10
2018-07-26T10:04:08.426Z,35.10
2018-07-26T10:06:35.860Z,35.30
2018-07-26T10:09:07.449Z,35.30
2018-07-26T10:11:35.002Z,35.30
2018-07-26T10:14:02.409Z,35.40
2018-07-26T10:21:26.106Z,35.60
2018-07-26T10:23:53.546Z,35.70
2018-07-26T10:26:20.901Z,35.80
2018-07-26T10:28:48.258Z,35.90
2018-07-26T10:31:15.722Z,36.00
2018-07-26T10:33:43.085Z,35.80
2018-07-26T10:36:10.606Z,35.80
2018-07-26T10:38:37.962Z,35.80
2018-07-26T10:41:05.419Z,35.90
2018-07-26T10:43:32.861Z,36.00
2018-07-26T10:46:00.267Z,36.10
2018-07-26T10:48:27.705Z,36.20
2018-07-26T10:50:58.855Z,36.10
2018-07-26T10:53:26.238Z,36.20
2018-07-26T10:58:20.968Z,36.20
2018-07-26T11:00:48.428Z,36.10
2018-07-26T11:03:15.845Z,36.30
2018-07-26T11:05:47.829Z,36.30
2018-07-26T11:08:15.304Z,36.30
2018-07-26T11:10:42.778Z,36.40
2018-07-26T11:13:10.209Z,36.50
2018-07-26T11:15:37.588Z,36.60
2018-07-26T11:18:07.440Z,36.60
2018-07-26T11:20:34.890Z,36.60
2018-07-26T11:23:02.419Z,36.60
2018-07-26T11:25:29.856Z,36.60
2018-07-26T11:27:57.279Z,36.60
2018-07-26T11:30:24.768Z,36.80
2018-07-26T11:32:58.310Z,36.80
2018-07-26T11:35:25.732Z,36.90
2018-07-26T11:40:20.751Z,36.80
2018-07-26T11:42:48.153Z,36.80
2018-07-26T11:45:15.632Z,36.80
2018-07-26T11:47:47.770Z,36.80
2018-07-26T11:50:15.299Z,36.90
2018-07-26T11:52:42.619Z,36.90
2018-07-26T11:55:09.971Z,36.80
2018-07-26T11:57:37.391Z,36.70
2018-07-26T12:00:05.570Z,36.70
2018-07-26T12:02:37.827Z,36.80
2018-07-26T12:05:05.289Z,36.80
2018-07-26T12:07:32.741Z,36.90
2018-07-26T12:10:00.149Z,36.80
2018-07-26T12:12:27.583Z,36.80
2018-07-26T12:14:54.994Z,36.80
2018-07-26T12:17:22.377Z,36.90
2018-07-26T12:19:52.265Z,37.10
2018-07-26T12:22:19.647Z,37.20
2018-07-26T12:24:47.050Z,37.20
2018-07-26T12:27:14.453Z,37.30
2018-07-26T12:29:41.797Z,37.20
2018-07-26T12:32:13.979Z,37.30
2018-07-26T12:34:42.107Z,37.30
2018-07-26T12:37:09.590Z,37.30
2018-07-26T12:39:36.991Z,37.20
2018-07-26T12:42:04.415Z,37.30
2018-07-26T12:44:31.788Z,37.30
2018-07-26T12:47:03.911Z,37.30
2018-07-26T12:49:31.290Z,37.30
2018-07-26T12:51:58.681Z,37.30
2018-07-26T12:54:26.079Z,37.20
2018-07-26T12:56:53.486Z,37.20
2018-07-26T12:59:26.081Z,37.30
2018-07-26T13:01:53.794Z,37.10
2018-07-26T13:04:21.379Z,37.30
2018-07-26T13:06:48.926Z,37.20
2018-07-26T13:09:16.519Z,37.10
2018-07-26T13:11:44.095Z,37.20
2018-07-26T13:14:13.263Z,37.10
2018-07-26T13:16:40.980Z,37.20
2018-07-26T13:19:08.648Z,37.20
2018-07-26T13:21:36.278Z,37.10
2018-07-26T13:24:03.818Z,37.10
2018-07-26T13:26:39.458Z,37.10
2018-07-26T13:29:07.042Z,37.20
2018-07-26T13:31:34.799Z,37.20
2018-07-26T13:34:02.447Z,37.40
2018-07-26T13:36:30.099Z,37.50
2018-07-26T13:38:57.702Z,37.40
2018-07-26T13:41:28.545Z,37.20
2018-07-26T13:46:23.736Z,37.40
2018-07-26T13:48:51.280Z,37.40
2018-07-26T13:51:18.855Z,37.30
2018-07-26T13:53:46.552Z,37.30
2018-07-26T13:56:14.152Z,37.20
2018-07-26T13:58:42.078Z,37.10
2018-07-26T14:01:09.782Z,37.00
2018-07-26T14:03:37.374Z,37.10
2018-07-26T14:06:05.378Z,37.00
2018-07-26T14:08:32.933Z,37.20
2018-07-26T14:11:00.526Z,37.30
2018-07-26T14:13:28.076Z,37.30
2018-07-26T14:15:55.902Z,37.10
2018-07-26T14:18:23.338Z,37.00
2018-07-26T14:20:50.975Z,37.00
2018-07-26T14:23:36.599Z,37.00
2018-07-26T14:26:04.673Z,37.00
2018-07-26T14:28:33.665Z,36.90
2018-07-26T14:31:01.200Z,36.90
2018-07-26T14:33:28.761Z,36.90
2018-07-26T14:35:56.789Z,36.90
2018-07-26T14:38:24.540Z,36.90
2018-07-26T14:40:52.808Z,37.10
2018-07-26T14:43:20.629Z,37.00
2018-07-26T14:45:48.184Z,37.00
2018-07-26T14:48:15.776Z,36.90
2018-07-26T14:50:43.337Z,36.60
2018-07-26T14:53:11.028Z,36.50
2018-07-26T14:55:38.753Z,36.60
2018-07-26T14:58:06.584Z,36.60
2018-07-26T15:00:34.304Z,36.70
2018-07-26T15:03:01.850Z,36.70
2018-07-26T15:05:29.469Z,36.60
2018-07-26T15:07:58.376Z,36.50
2018-07-26T15:10:26.037Z,36.40
2018-07-26T15:12:53.654Z,36.40
2018-07-26T15:15:21.267Z,36.40
2018-07-26T15:17:48.790Z,36.50
2018-07-26T15:20:16.499Z,36.50
2018-07-26T15:22:44.067Z,36.60
2018-07-26T15:25:11.719Z,36.50
2018-07-26T15:27:39.311Z,36.50
2018-07-26T15:30:06.859Z,36.40
2018-07-26T15:32:34.549Z,36.40
2018-07-26T15:35:02.213Z,36.20
2018-07-26T15:37:29.787Z,36.30
2018-07-26T15:39:57.597Z,36.10
2018-07-26T15:42:25.256Z,36.20
2018-07-26T15:44:52.823Z,36.20
2018-07-26T15:47:20.371Z,36.30
2018-07-26T15:49:47.930Z,36.30
2018-07-26T15:52:15.484Z,36.40
2018-07-26T15:54:43.107Z,36.40
2018-07-26T15:57:10.817Z,36.30
2018-07-26T15:59:38.370Z,36.40
2018-07-26T16:02:05.983Z,36.50
2018-07-26T16:04:33.554Z,36.50
2018-07-26T16:07:01.263Z,36.50
2018-07-26T16:09:28.881Z,36.40
2018-07-26T16:11:56.448Z,36.40
2018-07-26T16:14:24.096Z,36.40
2018-07-26T16:16:51.657Z,36.30
2018-07-26T16:19:19.299Z,36.30
2018-07-26T16:21:46.906Z,36.30
2018-07-26T16:24:14.503Z,36.00
2018-07-26T16:26:42.055Z,36.20
2018-07-26T16:29:09.661Z,36.10
2018-07-26T16:31:37.365Z,36.00
2018-07-26T16:34:05.072Z,36.00
2018-07-26T16:36:32.657Z,36.00
2018-07-26T16:39:00.219Z,36.00
2018-07-26T16:41:27.809Z,36.00
2018-07-26T16:43:55.504Z,36.00
2018-07-26T16:46:23.051Z,36.00
2018-07-26T16:48:51.564Z,35.90
2018-07-26T16:51:19.111Z,35.90
2018-07-26T16:53:46.648Z,35.80
2018-07-26T16:56:14.266Z,35.70
2018-07-26T16:58:41.933Z,35.80
2018-07-26T17:01:13.296Z,35.70
2018-07-26T17:03:40.898Z,35.60
2018-07-26T17:08:36.310Z,35.40
2018-07-26T17:11:03.886Z,35.40
2018-07-26T17:13:31.680Z,35.40
2018-07-26T17:15:59.198Z,35.30
2018-07-26T17:18:26.771Z,35.30
2018-07-26T17:20:54.679Z,35.20
2018-07-26T17:23:23.193Z,35.20
2018-07-26T17:25:50.793Z,35.10
2018-07-26T17:28:18.705Z,35.10
2018-07-26T17:30:46.366Z,35.00
2018-07-26T17:33:13.964Z,35.00
2018-07-26T17:35:41.565Z,34.80
2018-07-26T17:38:09.170Z,34.90
2018-07-26T17:40:36.749Z,34.70
2018-07-26T17:43:04.355Z,34.70
2018-07-26T17:45:32.083Z,34.60
2018-07-26T17:48:07.120Z,34.60
2018-07-26T17:50:34.705Z,34.60
2018-07-26T17:53:02.278Z,34.40
2018-07-26T17:55:29.832Z,34.30
2018-07-26T17:57:57.486Z,34.30
2018-07-26T18:00:30.446Z,34.30
2018-07-26T18:02:58.005Z,34.30
2018-07-26T18:05:25.593Z,34.20
2018-07-26T18:07:53.180Z,34.00
2018-07-26T18:10:20.820Z,34.00
2018-07-26T18:12:48.405Z,34.00
2018-07-26T18:15:16.046Z,33.90
2018-07-26T18:17:43.738Z,33.80
2018-07-26T18:20:11.312Z,33.70
2018-07-26T18:22:38.946Z,33.60
2018-07-26T18:25:06.565Z,33.60
2018-07-26T18:27:34.194Z,33.60
2018-07-26T18:30:01.980Z,33.50
2018-07-26T18:32:30.075Z,33.50
2018-07-26T18:34:57.838Z,33.40
2018-07-26T18:37:25.420Z,33.40
2018-07-26T18:39:53.137Z,33.30
2018-07-26T18:42:20.778Z,33.30
2018-07-26T18:44:48.457Z,33.20
2018-07-26T18:47:16.142Z,33.30
2018-07-26T18:49:43.739Z,33.10
2018-07-26T18:52:11.310Z,33.00
2018-07-26T18:54:38.898Z,33.00
2018-07-26T18:57:06.575Z,33.00
2018-07-26T18:59:34.312Z,33.00
2018-07-26T19:02:02.065Z,32.90
2018-07-26T19:04:29.639Z,32.70
2018-07-26T19:06:57.217Z,32.70
2018-07-26T19:09:24.781Z,32.70
2018-07-26T19:11:52.510Z,32.70
2018-07-26T19:14:20.221Z,32.60
2018-07-26T19:16:48.002Z,32.50
2018-07-26T19:19:15.683Z,32.50
2018-07-26T19:21:43.260Z,32.40
2018-07-26T19:26:39.919Z,32.30
2018-07-26T19:29:17.022Z,32.20
2018-07-26T19:31:44.436Z,32.10
2018-07-26T19:34:15.997Z,32.10
2018-07-26T19:36:43.990Z,32.00
2018-07-26T19:39:13.279Z,32.00
2018-07-26T19:41:41.657Z,32.00
2018-07-26T19:44:09.246Z,31.80
2018-07-26T19:46:36.883Z,32.00
2018-07-26T19:49:04.374Z,31.80
2018-07-26T19:51:33.293Z,31.70
2018-07-26T19:54:00.853Z,31.60
2018-07-26T19:56:28.466Z,31.60
2018-07-26T19:58:55.939Z,31.50
2018-07-26T20:01:23.403Z,31.40
2018-07-26T20:03:50.774Z,31.40
2018-07-26T20:06:18.142Z,31.30
2018-07-26T20:08:45.602Z,31.30
2018-07-26T20:11:13.021Z,31.20
2018-07-26T20:13:41.534Z,31.20
2018-07-26T20:16:09.008Z,31.00
2018-07-26T20:18:36.896Z,31.00
2018-07-26T20:21:04.473Z,31.00
2018-07-26T20:23:32.026Z,31.00
2018-07-26T20:25:59.547Z,30.90
2018-07-26T20:28:27.163Z,30.80
2018-07-26T20:30:54.759Z,30.80
2018-07-26T20:33:22.379Z,30.60
2018-07-26T20:35:49.923Z,30.50
2018-07-26T20:38:17.502Z,30.50
2018-07-26T20:40:45.537Z,30.40
2018-07-26T20:43:13.123Z,30.30
2018-07-26T20:45:40.982Z,30.20
2018-07-26T20:48:10.283Z,30.20
2018-07-26T20:50:38.630Z,30.20
2018-07-26T20:53:06.008Z,30.20
2018-07-26T20:55:33.365Z,30.10
2018-07-26T20:58:00.818Z,30.10
2018-07-26T21:00:28.190Z,30.00
2018-07-26T21:02:55.634Z,30.00
2018-07-26T21:05:23.162Z,30.00
2018-07-26T21:07:50.670Z,30.00
2018-07-26T21:10:18.362Z,29.90
2018-07-26T21:12:45.970Z,29.80
2018-07-26T21:15:13.546Z,29.70
2018-07-26T21:17:41.162Z,29.70
2018-07-26T21:22:36.440Z,29.60
2018-07-26T21:25:04.192Z,29.70
2018-07-26T21:27:31.786Z,29.60
2018-07-26T21:29:59.353Z,29.60
2018-07-26T21:32:26.974Z,29.50
2018-07-26T21:34:54.552Z,29.50
2018-07-26T21:37:22.229Z,29.40
2018-07-26T21:39:51.562Z,29.40
2018-07-26T21:42:19.274Z,29.30
2018-07-26T21:44:46.963Z,29.20
2018-07-26T21:47:14.579Z,29.20
2018-07-26T21:49:42.208Z,29.20
2018-07-26T21:52:09.855Z,29.10
2018-07-26T21:54:37.553Z,29.10
2018-07-26T21:57:05.178Z,29.00
2018-07-26T21:59:32.890Z,29.00
2018-07-26T22:02:00.526Z,29.00
2018-07-26T22:04:28.187Z,28.80
2018-07-26T22:06:58.948Z,28.80
2018-07-26T22:09:26.572Z,28.80
2018-07-26T22:11:54.148Z,28.80
2018-07-26T22:14:21.761Z,28.70
2018-07-26T22:16:49.333Z,28.60
2018-07-26T22:19:17.067Z,28.50
2018-07-26T22:21:44.707Z,28.50
2018-07-26T22:24:12.378Z,28.40
2018-07-26T22:26:40.044Z,28.30
2018-07-26T22:29:07.682Z,28.20
2018-07-26T22:31:35.315Z,28.20
2018-07-26T22:34:02.886Z,28.10
2018-07-26T22:36:30.487Z,28.10
2018-07-26T22:39:00.522Z,28.00
2018-07-26T22:41:27.894Z,28.00
2018-07-26T22:43:55.295Z,27.90
2018-07-26T22:46:27.245Z,27.90
2018-07-26T22:48:54.632Z,27.80
2018-07-26T22:51:22.026Z,27.80
2018-07-26T22:53:49.855Z,27.70
2018-07-26T22:56:18.914Z,27.60
2018-07-26T22:58:46.366Z,27.60
2018-07-26T23:01:13.950Z,27.50
2018-07-26T23:03:41.394Z,27.40
2018-07-26T23:06:08.917Z,27.40
2018-07-26T23:08:36.305Z,27.30
2018-07-26T23:11:03.723Z,27.20
2018-07-26T23:13:31.104Z,27.10
2018-07-26T23:15:58.495Z,27.10
2018-07-26T23:18:26.201Z,27.00
2018-07-26T23:20:58.321Z,26.90
2018-07-26T23:23:25.705Z,26.80
2018-07-26T23:25:53.174Z,26.80
2018-07-26T23:28:20.534Z,26.80
2018-07-26T23:30:48.239Z,26.70
2018-07-26T23:33:15.653Z,26.60
2018-07-26T23:35:43.064Z,26.60
2018-07-26T23:38:10.442Z,26.50
2018-07-26T23:40:38.090Z,26.40
2018-07-26T23:43:05.467Z,26.40
2018-07-26T23:45:36.041Z,26.30
2018-07-26T23:48:03.507Z,26.30
2018-07-26T23:50:30.879Z,26.30
2018-07-26T23:52:58.302Z,26.20
2018-07-26T23:55:25.727Z,26.10
2018-07-26T23:57:53.104Z,26.00
